Time;durP1;ratioP1;P1;durP2;ratioP2;P2;SDS_P1;SDS_P2;PMS_P1;PMS_P2;Temp;Humidity;BMP_temperature;BMP_pressure;BME280_temperature;BME280_humidity;BME280_pressure;Samples;Min_cycle;Max_cycle;Signal;HPM_P1;HPM_P2
2023/06/06 00:00:48;;;;;;;12.35;8.10;;;14.70;93.60;;;;;;6240824;23;20004;-71
2023/06/06 00:03:13;;;;;;;9.48;8.45;;;14.70;93.70;;;;;;6240673;23;20075;-71
2023/06/06 00:05:39;;;;;;;12.82;7.95;;;14.70;93.70;;;;;;6241551;23;19997;-70
2023/06/06 00:08:07;;;;;;;11.02;8.68;;;14.70;93.90;;;;;;6242620;23;19996;-71
2023/06/06 00:10:34;;;;;;;9.88;8.77;;;14.60;93.90;;;;;;6242796;23;20003;-71
2023/06/06 00:13:01;;;;;;;14.07;8.95;;;14.60;94.10;;;;;;6242926;23;20005;-71
2023/06/06 00:15:28;;;;;;;10.68;7.80;;;14.50;94.30;;;;;;6242749;23;20004;-71
2023/06/06 00:17:55;;;;;;;10.25;8.80;;;14.50;94.40;;;;;;6242787;23;20058;-71
2023/06/06 00:20:21;;;;;;;12.60;8.23;;;14.40;94.50;;;;;;6242752;23;20387;-70
2023/06/06 00:22:48;;;;;;;8.55;6.97;;;14.40;94.60;;;;;;6242112;23;20126;-70
2023/06/06 00:25:14;;;;;;;10.10;8.45;;;14.30;94.60;;;;;;6242510;23;20000;-71
2023/06/06 00:27:40;;;;;;;10.88;8.50;;;14.30;94.80;;;;;;6242221;23;20422;-71
2023/06/06 00:30:06;;;;;;;10.75;9.15;;;14.20;94.90;;;;;;6242934;23;20003;-71
2023/06/06 00:32:32;;;;;;;10.30;7.88;;;14.20;95.00;;;;;;6242617;23;20012;-71
2023/06/06 00:34:57;;;;;;;9.93;8.20;;;14.20;95.10;;;;;;6242547;23;20011;-71
2023/06/06 00:37:23;;;;;;;11.80;8.88;;;14.10;95.20;;;;;;6241863;23;20008;-71
2023/06/06 00:39:49;;;;;;;12.20;8.73;;;14.10;95.50;;;;;;6242575;23;20014;-71
2023/06/06 00:42:14;;;;;;;12.00;9.20;;;14.00;95.50;;;;;;6242312;23;20001;-71
2023/06/06 00:44:40;;;;;;;13.50;8.35;;;14.00;95.80;;;;;;6242841;23;19996;-71
2023/06/06 00:47:06;;;;;;;10.88;9.20;;;13.90;95.80;;;;;;6242490;23;19996;-71
2023/06/06 00:49:33;;;;;;;13.00;8.70;;;13.90;96.00;;;;;;6242773;23;20331;-71
2023/06/06 00:52:00;;;;;;;12.15;9.35;;;13.90;96.10;;;;;;6241952;23;20015;-71
2023/06/06 00:54:26;;;;;;;10.93;7.90;;;13.90;96.20;;;;;;6242051;23;20071;-70
2023/06/06 00:56:52;;;;;;;10.82;7.82;;;13.90;96.20;;;;;;6242211;23;20028;-71
2023/06/06 00:59:20;;;;;;;12.65;8.82;;;13.90;96.30;;;;;;6242351;23;20338;-71
2023/06/06 01:01:48;;;;;;;10.80;9.27;;;13.80;96.30;;;;;;6242248;23;20004;-71
2023/06/06 01:04:15;;;;;;;10.52;9.00;;;13.80;96.40;;;;;;6242259;23;20024;-71
2023/06/06 01:06:41;;;;;;;13.23;9.30;;;13.70;96.50;;;;;;6241867;23;20000;-71
2023/06/06 01:09:09;;;;;;;11.02;8.30;;;13.80;96.60;;;;;;6242373;23;20015;-71
2023/06/06 01:12:03;;;;;;;11.82;8.07;;;13.70;96.60;;;;;;6242414;23;20024;-72
2023/06/06 01:14:43;;;;;;;15.18;8.07;;;13.70;96.70;;;;;;6242210;23;20333;-71
2023/06/06 01:17:10;;;;;;;13.85;8.15;;;13.70;96.80;;;;;;6242347;23;20449;-71
2023/06/06 01:19:41;;;;;;;10.68;8.57;;;13.60;96.80;;;;;;6242236;23;20326;-71
2023/06/06 01:22:07;;;;;;;13.18;8.85;;;13.60;96.90;;;;;;6241858;23;20008;-70
2023/06/06 01:24:36;;;;;;;11.07;7.90;;;13.60;97.00;;;;;;6241925;23;20087;-71
2023/06/06 01:27:03;;;;;;;14.27;9.38;;;13.50;97.00;;;;;;6242054;23;20022;-71
2023/06/06 01:29:30;;;;;;;12.07;7.63;;;13.50;97.20;;;;;;6214899;23;20080;-70
2023/06/06 01:31:59;;;;;;;10.95;8.73;;;13.50;97.20;;;;;;6241916;23;20354;-71
2023/06/06 01:34:33;;;;;;;9.85;7.95;;;13.40;97.40;;;;;;6241891;23;20071;-71
2023/06/06 01:37:27;;;;;;;11.23;8.43;;;13.40;97.50;;;;;;6241574;23;20149;-71
2023/06/06 01:39:55;;;;;;;10.75;8.95;;;13.40;97.60;;;;;;6242121;23;20035;-71
2023/06/06 01:42:21;;;;;;;11.07;8.27;;;13.30;97.60;;;;;;6241591;23;20079;-71
2023/06/06 01:44:52;;;;;;;12.00;8.48;;;13.30;97.70;;;;;;6241884;23;20004;-71
2023/06/06 01:47:18;;;;;;;10.93;8.48;;;13.30;97.70;;;;;;6241654;23;19992;-71
2023/06/06 01:49:44;;;;;;;11.50;8.90;;;13.30;97.80;;;;;;6241230;23;19996;-70
2023/06/06 01:52:11;;;;;;;9.38;7.75;;;13.30;97.90;;;;;;6242106;23;20015;-71
2023/06/06 01:54:40;;;;;;;12.10;8.73;;;13.20;97.90;;;;;;6241755;23;20004;-71
2023/06/06 01:57:07;;;;;;;10.15;8.40;;;13.20;98.00;;;;;;6241762;23;20099;-71
2023/06/06 01:59:33;;;;;;;11.02;8.40;;;13.10;98.10;;;;;;6241836;23;20602;-71
2023/06/06 02:01:59;;;;;;;13.90;8.77;;;13.20;98.20;;;;;;6241439;23;20084;-71
2023/06/06 02:04:24;;;;;;;12.02;8.10;;;13.20;98.30;;;;;;6241182;23;20040;-71
2023/06/06 02:06:51;;;;;;;10.02;8.75;;;13.10;98.40;;;;;;6241537;23;20007;-71
2023/06/06 02:09:17;;;;;;;9.43;8.43;;;13.10;98.50;;;;;;6241453;23;20000;-71
2023/06/06 02:11:42;;;;;;;11.80;9.00;;;13.10;98.60;;;;;;6241365;23;20493;-71
2023/06/06 02:14:08;;;;;;;12.25;8.93;;;13.00;98.70;;;;;;6241681;23;20110;-71
2023/06/06 02:16:36;;;;;;;10.73;7.45;;;13.00;98.90;;;;;;6241528;23;20027;-71
2023/06/06 02:19:02;;;;;;;14.23;8.57;;;13.00;98.90;;;;;;6241333;23;20370;-71
2023/06/06 02:21:27;;;;;;;14.70;8.98;;;13.00;99.00;;;;;;6241337;23;20071;-71
2023/06/06 02:23:53;;;;;;;14.63;10.02;;;12.90;99.10;;;;;;6241626;23;20367;-70
2023/06/06 02:26:21;;;;;;;11.60;8.93;;;12.90;99.30;;;;;;6241078;23;20375;-71
2023/06/06 02:28:48;;;;;;;14.60;9.75;;;12.90;99.30;;;;;;6241423;23;20092;-71
2023/06/06 02:31:14;;;;;;;14.77;9.23;;;12.90;99.50;;;;;;6240931;23;20094;-70
2023/06/06 02:33:40;;;;;;;14.82;8.43;;;12.90;99.60;;;;;;6240961;23;20012;-71
2023/06/06 02:36:06;;;;;;;14.10;8.75;;;12.90;99.70;;;;;;6241134;23;20065;-71
2023/06/06 02:38:32;;;;;;;15.65;10.07;;;12.80;99.70;;;;;;6241211;23;20004;-70
2023/06/06 02:40:57;;;;;;;11.23;8.25;;;12.80;99.80;;;;;;6239633;23;20023;-71
2023/06/06 02:43:23;;;;;;;12.77;9.13;;;12.80;99.80;;;;;;6211477;23;20034;-71
2023/06/06 02:45:48;;;;;;;9.45;8.02;;;12.80;99.90;;;;;;6238713;23;20079;-71
2023/06/06 02:48:14;;;;;;;12.90;8.93;;;12.80;99.90;;;;;;6238674;23;20000;-71
2023/06/06 02:50:39;;;;;;;13.13;8.90;;;12.80;99.90;;;;;;6238844;23;19996;-71
2023/06/06 02:53:06;;;;;;;14.13;9.27;;;12.80;99.90;;;;;;6239563;23;20087;-71
2023/06/06 02:55:31;;;;;;;13.20;10.10;;;12.80;99.90;;;;;;6239152;23;20000;-71
2023/06/06 02:57:57;;;;;;;14.57;10.27;;;12.80;99.90;;;;;;6240576;23;20019;-71
2023/06/06 03:00:23;;;;;;;14.80;9.30;;;12.70;99.90;;;;;;6240900;23;20437;-71
2023/06/06 03:02:48;;;;;;;17.70;10.20;;;12.70;99.90;;;;;;6240524;23;20004;-71
2023/06/06 03:05:14;;;;;;;14.68;10.35;;;12.70;99.90;;;;;;6240965;23;20588;-71
2023/06/06 03:07:40;;;;;;;13.32;9.85;;;12.60;99.90;;;;;;6241039;23;20000;-72
2023/06/06 03:10:07;;;;;;;14.70;10.63;;;12.60;99.90;;;;;;6241572;23;20007;-71
2023/06/06 03:12:33;;;;;;;15.00;10.52;;;12.70;99.90;;;;;;6241143;23;20330;-71
2023/06/06 03:14:58;;;;;;;15.55;10.65;;;12.60;99.90;;;;;;6240922;23;20011;-71
2023/06/06 03:17:24;;;;;;;12.13;10.18;;;12.60;99.90;;;;;;6240311;23;20004;-72
2023/06/06 03:19:49;;;;;;;11.65;9.77;;;12.60;99.90;;;;;;6240695;23;20000;-71
2023/06/06 03:22:18;;;;;;;14.32;9.45;;;12.50;99.90;;;;;;6240851;23;20004;-71
2023/06/06 03:24:49;;;;;;;11.80;9.10;;;12.50;99.90;;;;;;6241031;23;20390;-71
2023/06/06 03:27:15;;;;;;;13.45;9.95;;;12.50;99.90;;;;;;6213732;23;20008;-72
2023/06/06 03:29:40;;;;;;;14.65;9.20;;;12.50;99.90;;;;;;6214164;23;20008;-71
2023/06/06 03:32:07;;;;;;;16.80;11.13;;;12.50;99.90;;;;;;6240713;23;20023;-71
2023/06/06 03:34:32;;;;;;;12.68;9.60;;;12.50;99.90;;;;;;6241108;23;20005;-71
2023/06/06 03:36:58;;;;;;;14.20;9.85;;;12.50;99.90;;;;;;6240897;23;20011;-71
2023/06/06 03:39:25;;;;;;;11.70;9.48;;;12.50;99.90;;;;;;6241098;23;20115;-71
2023/06/06 03:41:50;;;;;;;15.85;10.98;;;12.40;99.90;;;;;;6242354;23;20638;-71
2023/06/06 03:44:16;;;;;;;13.00;8.60;;;12.50;99.90;;;;;;6215977;23;20000;-71
2023/06/06 03:46:42;;;;;;;13.88;9.30;;;12.50;99.90;;;;;;6242382;23;19997;-71
2023/06/06 03:49:08;;;;;;;10.50;9.40;;;12.50;99.90;;;;;;6243162;23;20070;-70
2023/06/06 03:51:33;;;;;;;14.68;9.20;;;12.50;99.90;;;;;;6242753;23;20003;-70
2023/06/06 03:53:59;;;;;;;13.32;8.55;;;12.50;99.90;;;;;;6243051;23;20000;-71
2023/06/06 03:56:25;;;;;;;10.57;8.57;;;12.50;99.90;;;;;;6242596;23;20398;-71
2023/06/06 03:58:50;;;;;;;12.27;9.18;;;12.50;99.90;;;;;;6242850;23;19996;-71
2023/06/06 04:01:16;;;;;;;10.60;9.52;;;12.50;99.90;;;;;;6242046;23;20004;-71
2023/06/06 04:03:42;;;;;;;10.95;9.70;;;12.50;99.90;;;;;;6242866;23;20042;-71
2023/06/06 04:06:10;;;;;;;17.52;10.57;;;12.50;99.90;;;;;;6242894;23;19996;-71
2023/06/06 04:08:35;;;;;;;13.70;10.07;;;12.50;99.90;;;;;;6243298;23;20003;-71
2023/06/06 04:11:01;;;;;;;11.65;9.13;;;12.60;99.90;;;;;;6242658;23;20000;-70
2023/06/06 04:13:27;;;;;;;14.75;9.95;;;12.50;99.90;;;;;;6242707;23;20079;-71
2023/06/06 04:15:53;;;;;;;17.63;10.93;;;12.50;99.90;;;;;;6242200;23;20085;-70
2023/06/06 04:18:18;;;;;;;11.55;8.77;;;12.60;99.90;;;;;;6242486;23;20035;-71
2023/06/06 04:20:44;;;;;;;14.02;10.02;;;12.60;99.90;;;;;;6242584;23;20001;-71
2023/06/06 04:23:10;;;;;;;10.68;9.05;;;12.60;99.90;;;;;;6242833;23;20079;-72
2023/06/06 04:25:36;;;;;;;17.83;9.70;;;12.60;99.90;;;;;;6216016;23;20064;-71
2023/06/06 04:28:01;;;;;;;14.40;9.40;;;12.60;99.90;;;;;;6242453;23;20012;-71
2023/06/06 04:30:29;;;;;;;12.63;9.73;;;12.60;99.90;;;;;;6214974;23;20004;-71
2023/06/06 04:32:55;;;;;;;18.33;10.00;;;12.70;99.90;;;;;;6242674;23;19997;-72
2023/06/06 04:35:20;;;;;;;12.95;9.38;;;12.70;99.90;;;;;;6242448;23;20019;-71
2023/06/06 04:37:53;;;;;;;15.20;9.90;;;12.70;99.90;;;;;;6242719;23;20007;-71
2023/06/06 04:40:22;;;;;;;12.02;9.07;;;12.70;99.90;;;;;;6242130;23;20356;-71
2023/06/06 04:42:49;;;;;;;13.05;9.00;;;12.70;99.90;;;;;;6242333;23;20027;-71
2023/06/06 04:45:15;;;;;;;12.27;9.73;;;12.80;99.90;;;;;;6241915;23;20087;-71
2023/06/06 04:47:44;;;;;;;13.73;9.20;;;12.80;99.90;;;;;;6242525;23;20429;-70
2023/06/06 04:50:10;;;;;;;15.50;8.80;;;12.80;99.90;;;;;;6242546;23;19997;-71
2023/06/06 04:52:36;;;;;;;11.50;8.98;;;12.80;99.90;;;;;;6242573;23;20000;-71
2023/06/06 04:55:03;;;;;;;12.30;9.40;;;12.80;99.90;;;;;;6215779;23;20058;-71
2023/06/06 04:57:29;;;;;;;11.50;9.05;;;12.90;99.90;;;;;;6242476;23;20035;-71
2023/06/06 04:59:56;;;;;;;12.73;9.02;;;12.90;99.90;;;;;;6241865;23;20011;-71
2023/06/06 05:02:28;;;;;;;13.90;9.23;;;13.00;99.90;;;;;;6242136;23;20401;-72
2023/06/06 05:04:55;;;;;;;13.65;9.13;;;13.10;99.90;;;;;;6242192;23;20050;-71
2023/06/06 05:07:25;;;;;;;13.95;8.52;;;13.10;99.90;;;;;;6242059;23;20441;-71
2023/06/06 05:09:54;;;;;;;11.15;8.30;;;13.10;99.90;;;;;;6242681;23;20024;-71
2023/06/06 05:12:21;;;;;;;9.48;7.35;;;13.20;99.90;;;;;;6242206;23;20750;-71
2023/06/06 05:14:46;;;;;;;12.93;8.00;;;13.20;99.90;;;;;;6241700;23;20008;-71
2023/06/06 05:17:17;;;;;;;10.55;8.50;;;13.30;99.90;;;;;;6215218;23;20004;-71
2023/06/06 05:19:44;;;;;;;11.13;8.90;;;13.40;99.90;;;;;;6242410;23;20077;-71
2023/06/06 05:22:09;;;;;;;11.57;8.73;;;13.40;99.90;;;;;;6242556;23;20028;-70
2023/06/06 05:24:35;;;;;;;12.88;9.38;;;13.40;99.90;;;;;;6241922;23;20004;-71
2023/06/06 05:27:00;;;;;;;14.02;9.50;;;13.50;99.90;;;;;;6241925;23;20571;-71
2023/06/06 05:29:26;;;;;;;10.82;8.20;;;13.50;99.90;;;;;;6241366;23;20378;-71
2023/06/06 05:31:52;;;;;;;10.63;8.25;;;13.50;99.90;;;;;;6242008;23;19996;-71
2023/06/06 05:34:18;;;;;;;12.80;8.70;;;13.60;99.90;;;;;;6241656;23;19996;-71
2023/06/06 05:36:43;;;;;;;11.00;7.93;;;13.60;99.90;;;;;;6215037;23;20000;-71
2023/06/06 05:39:10;;;;;;;11.43;7.93;;;13.60;99.90;;;;;;6242260;23;19997;-71
2023/06/06 05:41:36;;;;;;;9.98;7.95;;;13.70;99.90;;;;;;6241653;23;20333;-70
2023/06/06 05:44:02;;;;;;;12.90;8.65;;;13.70;99.90;;;;;;6242054;23;20014;-71
2023/06/06 05:46:27;;;;;;;9.77;7.65;;;13.80;99.90;;;;;;6241723;23;20079;-71
2023/06/06 05:48:53;;;;;;;12.02;8.00;;;13.80;99.90;;;;;;6241860;23;19996;-71
2023/06/06 05:51:18;;;;;;;13.18;8.13;;;13.80;99.90;;;;;;6241679;23;20011;-71
2023/06/06 05:53:44;;;;;;;10.48;7.88;;;13.90;99.90;;;;;;6241806;23;20008;-72
2023/06/06 05:56:13;;;;;;;11.70;7.97;;;13.90;99.90;;;;;;6241626;23;20000;-72
2023/06/06 05:58:40;;;;;;;10.98;7.78;;;13.90;99.90;;;;;;6241661;23;20008;-72
2023/06/06 06:01:05;;;;;;;11.23;8.80;;;14.00;99.90;;;;;;6214680;23;20107;-73
2023/06/06 06:03:33;;;;;;;10.30;7.25;;;14.10;99.90;;;;;;6240867;23;20082;-72
2023/06/06 06:06:04;;;;;;;12.73;9.80;;;14.10;99.90;;;;;;6241884;23;20000;-72
2023/06/06 06:08:31;;;;;;;13.45;8.60;;;14.10;99.90;;;;;;6241858;23;20079;-69
2023/06/06 06:10:56;;;;;;;13.68;7.82;;;14.20;99.90;;;;;;6241209;23;20023;-69
2023/06/06 06:13:22;;;;;;;11.93;8.63;;;14.30;99.90;;;;;;6241635;23;20520;-69
2023/06/06 06:15:48;;;;;;;12.65;7.65;;;14.40;99.90;;;;;;6241656;23;20328;-69
2023/06/06 06:18:14;;;;;;;13.63;8.80;;;14.40;99.90;;;;;;6241502;23;20027;-69
2023/06/06 06:20:40;;;;;;;12.98;7.15;;;14.50;99.80;;;;;;6241598;23;20023;-69
2023/06/06 06:23:06;;;;;;;10.48;6.90;;;14.50;99.60;;;;;;6241554;23;20430;-70
2023/06/06 06:25:31;;;;;;;12.00;8.38;;;14.60;99.50;;;;;;6241867;23;20008;-69
2023/06/06 06:27:57;;;;;;;11.70;7.20;;;14.70;99.30;;;;;;6241313;23;20460;-69
2023/06/06 06:30:23;;;;;;;11.68;7.10;;;14.70;99.20;;;;;;6241325;23;20037;-69
2023/06/06 06:32:48;;;;;;;10.48;7.07;;;14.80;99.00;;;;;;6241467;23;20012;-69
2023/06/06 06:35:14;;;;;;;13.43;8.43;;;14.90;98.90;;;;;;6214322;23;20084;-69
2023/06/06 06:37:40;;;;;;;11.45;7.70;;;14.90;98.60;;;;;;6241376;23;20000;-69
2023/06/06 06:40:09;;;;;;;10.75;7.55;;;15.00;98.70;;;;;;6240299;23;20008;-69
2023/06/06 06:42:39;;;;;;;12.90;7.47;;;15.00;98.60;;;;;;6240880;23;20491;-69
2023/06/06 06:45:07;;;;;;;12.63;7.72;;;15.10;98.50;;;;;;6241393;23;20079;-69
2023/06/06 06:47:32;;;;;;;13.25;7.35;;;15.20;98.60;;;;;;6241324;23;20027;-70
2023/06/06 06:49:58;;;;;;;10.40;6.97;;;15.20;98.10;;;;;;6241166;23;19996;-70
2023/06/06 06:52:23;;;;;;;9.55;6.40;;;15.30;97.80;;;;;;6240730;23;20698;-69
2023/06/06 06:54:53;;;;;;;9.23;8.20;;;15.40;97.70;;;;;;6240237;23;20004;-69
2023/06/06 06:57:20;;;;;;;9.27;7.40;;;15.40;97.30;;;;;;6236307;23;20390;-70
2023/06/06 06:59:46;;;;;;;11.73;6.65;;;15.40;97.30;;;;;;6239351;23;20000;-69
2023/06/06 07:02:12;;;;;;;12.93;7.38;;;15.50;97.20;;;;;;6239911;23;20008;-70
2023/06/06 07:04:39;;;;;;;10.48;6.60;;;15.60;97.00;;;;;;6240683;23;20000;-69
2023/06/06 07:07:06;;;;;;;10.07;6.93;;;15.60;96.90;;;;;;6241118;23;20001;-70
2023/06/06 07:09:31;;;;;;;9.73;6.55;;;15.70;96.90;;;;;;6239155;23;20000;-69
2023/06/06 07:11:57;;;;;;;9.13;7.07;;;15.80;96.70;;;;;;6239977;23;20359;-70
2023/06/06 07:14:22;;;;;;;12.43;6.32;;;15.80;96.70;;;;;;6213301;23;20010;-69
2023/06/06 07:16:48;;;;;;;9.60;7.05;;;16.00;96.60;;;;;;6240948;23;20326;-69
2023/06/06 07:19:14;;;;;;;9.00;6.47;;;16.10;96.40;;;;;;6213851;23;20008;-69
2023/06/06 07:21:39;;;;;;;10.25;6.25;;;16.10;96.30;;;;;;6239852;23;20098;-69
2023/06/06 07:24:05;;;;;;;12.00;6.57;;;16.20;96.20;;;;;;6241043;23;20330;-69
2023/06/06 07:26:31;;;;;;;8.23;6.45;;;16.30;96.20;;;;;;6240822;23;20089;-70
2023/06/06 07:28:56;;;;;;;12.45;7.53;;;16.40;96.10;;;;;;6240366;23;20424;-70
2023/06/06 07:31:22;;;;;;;9.63;7.10;;;16.50;96.00;;;;;;6239032;23;20684;-69
2023/06/06 07:33:48;;;;;;;10.55;6.78;;;16.60;95.90;;;;;;6240654;23;20000;-70
2023/06/06 07:36:14;;;;;;;11.00;6.18;;;16.70;95.70;;;;;;6240616;23;19997;-70
2023/06/06 07:38:39;;;;;;;9.60;7.80;;;16.80;95.60;;;;;;6213292;23;20059;-70
2023/06/06 07:41:05;;;;;;;10.65;7.05;;;16.90;95.50;;;;;;6240583;23;20000;-70
2023/06/06 07:43:31;;;;;;;10.43;8.02;;;16.90;95.20;;;;;;6239430;23;20091;-69
2023/06/06 07:45:56;;;;;;;10.35;7.45;;;17.00;94.90;;;;;;6240044;23;20410;-70
2023/06/06 07:48:22;;;;;;;16.20;6.30;;;17.10;94.90;;;;;;6239696;23;20035;-70
2023/06/06 07:50:47;;;;;;;9.90;7.05;;;17.20;94.80;;;;;;6213629;23;20004;-69
2023/06/06 07:53:13;;;;;;;7.80;5.85;;;17.30;94.70;;;;;;6238403;23;20011;-69
2023/06/06 07:55:38;;;;;;;10.95;6.68;;;17.40;94.50;;;;;;6240593;23;20422;-69
2023/06/06 07:58:10;;;;;;;10.23;6.65;;;17.50;94.40;;;;;;6240569;23;20377;-70
2023/06/06 08:00:37;;;;;;;9.25;6.68;;;17.60;94.10;;;;;;6240513;23;20015;-70
2023/06/06 08:03:03;;;;;;;12.70;6.63;;;17.70;93.90;;;;;;6212889;23;20008;-69
2023/06/06 08:05:28;;;;;;;11.40;7.50;;;17.70;93.60;;;;;;6239053;23;20000;-69
2023/06/06 08:07:54;;;;;;;14.45;6.75;;;17.80;93.70;;;;;;6239926;23;20000;-69
2023/06/06 08:10:20;;;;;;;7.47;6.55;;;17.90;93.60;;;;;;6239785;23;20005;-70
2023/06/06 08:12:46;;;;;;;9.38;5.70;;;18.10;93.50;;;;;;6240674;23;20000;-69
2023/06/06 08:15:12;;;;;;;11.23;6.63;;;18.10;93.40;;;;;;6238346;23;20046;-70
2023/06/06 08:17:37;;;;;;;10.48;6.63;;;18.20;93.20;;;;;;6213534;23;20008;-70
2023/06/06 08:20:07;;;;;;;10.27;7.35;;;18.30;93.20;;;;;;6240253;23;20011;-70
2023/06/06 08:22:33;;;;;;;8.00;6.15;;;18.40;93.10;;;;;;6212116;23;20099;-70
2023/06/06 08:25:03;;;;;;;9.63;6.20;;;18.50;93.00;;;;;;6212721;23;20008;-70
2023/06/06 08:27:29;;;;;;;9.15;5.93;;;18.60;92.70;;;;;;6240476;23;20016;-70
2023/06/06 08:29:55;;;;;;;10.63;6.47;;;18.70;92.40;;;;;;6241615;23;20333;-70
2023/06/06 08:32:20;;;;;;;9.85;5.85;;;18.70;92.30;;;;;;6242170;23;20462;-70
2023/06/06 08:34:46;;;;;;;7.53;6.72;;;18.80;92.30;;;;;;6215315;23;20010;-70
2023/06/06 08:37:12;;;;;;;11.38;6.20;;;18.80;92.20;;;;;;6239826;23;20000;-69
2023/06/06 08:39:38;;;;;;;8.63;5.35;;;18.90;92.10;;;;;;6241642;23;20003;-70
2023/06/06 08:42:07;;;;;;;9.52;6.30;;;19.00;92.00;;;;;;6241978;23;20008;-70
2023/06/06 08:44:33;;;;;;;10.98;6.32;;;19.00;91.80;;;;;;6241593;23;20342;-70
2023/06/06 08:47:01;;;;;;;8.98;5.57;;;19.10;91.90;;;;;;6241059;23;20004;-70
2023/06/06 08:49:28;;;;;;;6.60;5.63;;;19.20;91.70;;;;;;6213542;23;20004;-70
2023/06/06 08:51:56;;;;;;;11.50;5.55;;;19.30;91.70;;;;;;6241043;23;19996;-70
2023/06/06 08:54:22;;;;;;;8.23;6.35;;;19.40;91.40;;;;;;6241096;23;19996;-70
2023/06/06 08:56:48;;;;;;;13.27;7.13;;;19.40;91.20;;;;;;6241530;23;20000;-70
2023/06/06 08:59:15;;;;;;;6.60;5.20;;;19.50;91.20;;;;;;6240233;23;20001;-70
2023/06/06 09:01:41;;;;;;;9.20;6.88;;;19.60;91.20;;;;;;6241522;23;20418;-69
2023/06/06 09:04:07;;;;;;;9.70;5.82;;;19.60;90.80;;;;;;6241577;23;20004;-70
2023/06/06 09:06:38;;;;;;;10.45;6.35;;;19.70;91.00;;;;;;6241480;23;20262;-70
2023/06/06 09:09:05;;;;;;;7.20;6.15;;;19.80;90.80;;;;;;6213044;23;20007;-70
2023/06/06 09:11:31;;;;;;;7.82;5.07;;;19.90;90.60;;;;;;6241533;23;20054;-70
2023/06/06 09:13:57;;;;;;;9.40;5.88;;;19.90;90.50;;;;;;6241087;23;20011;-70
2023/06/06 09:16:24;;;;;;;6.55;5.05;;;20.00;90.40;;;;;;6241575;23;20008;-70
2023/06/06 09:18:50;;;;;;;8.68;6.55;;;20.00;90.40;;;;;;6241871;23;20004;-70
2023/06/06 09:21:15;;;;;;;9.23;5.53;;;20.10;90.30;;;;;;6239760;23;20137;-70
2023/06/06 09:23:41;;;;;;;9.32;5.45;;;20.20;89.90;;;;;;6242023;23;20000;-70
2023/06/06 09:26:20;;;;;;;5.78;5.05;;;20.20;89.50;;;;;;6242107;23;20004;-70
2023/06/06 09:28:47;;;;;;;10.13;5.82;;;20.30;89.30;;;;;;6240938;23;20100;-70
2023/06/06 09:31:30;;;;;;;7.78;5.32;;;20.40;89.20;;;;;;6211871;23;20005;-70
2023/06/06 09:33:59;;;;;;;8.55;6.07;;;20.50;89.00;;;;;;6240272;23;20011;-70
2023/06/06 09:36:29;;;;;;;7.45;5.05;;;20.60;89.00;;;;;;6241285;23;20450;-70
2023/06/06 09:39:05;;;;;;;6.28;5.32;;;20.60;88.90;;;;;;6240815;23;20085;-70
2023/06/06 09:41:37;;;;;;;7.32;5.22;;;20.70;88.40;;;;;;6239817;23;20004;-69
2023/06/06 09:44:04;;;;;;;9.50;6.07;;;20.70;88.10;;;;;;6240752;23;20040;-69
2023/06/06 09:46:36;;;;;;;6.20;5.10;;;20.80;88.40;;;;;;6241136;23;20088;-69
2023/06/06 09:49:03;;;;;;;8.18;5.35;;;21.00;88.50;;;;;;6240414;23;20485;-70
2023/06/06 09:51:30;;;;;;;8.00;4.35;;;21.10;87.60;;;;;;6241054;23;20521;-70
2023/06/06 09:53:56;;;;;;;8.55;5.57;;;21.20;86.80;;;;;;6239586;23;20000;-69
2023/06/06 09:56:23;;;;;;;8.60;6.35;;;21.30;86.30;;;;;;6214288;23;20422;-69
2023/06/06 09:58:55;;;;;;;11.55;6.80;;;21.30;86.30;;;;;;6240716;23;20008;-69
2023/06/06 10:01:26;;;;;;;7.40;4.63;;;21.30;86.00;;;;;;6240621;23;20493;-70
2023/06/06 10:03:54;;;;;;;6.13;4.68;;;21.40;86.10;;;;;;6238955;23;20012;-70
2023/06/06 10:06:20;;;;;;;8.23;5.38;;;21.40;85.70;;;;;;6240261;23;20414;-70
2023/06/06 10:08:47;;;;;;;8.10;5.32;;;21.50;85.40;;;;;;6240714;23;20007;-69
2023/06/06 10:11:12;;;;;;;9.32;5.35;;;21.40;85.20;;;;;;6213650;23;20381;-70
2023/06/06 10:13:39;;;;;;;7.57;5.07;;;21.50;85.00;;;;;;6240515;23;20004;-70
2023/06/06 10:16:05;;;;;;;8.07;4.70;;;21.60;84.70;;;;;;6239701;23;20000;-70
2023/06/06 10:18:33;;;;;;;9.63;5.75;;;21.60;84.50;;;;;;6239387;23;20008;-71
2023/06/06 10:21:00;;;;;;;7.00;4.85;;;21.70;84.50;;;;;;6240544;23;20274;-70
2023/06/06 10:23:26;;;;;;;10.80;5.97;;;21.70;83.90;;;;;;6239753;23;20004;-70
2023/06/06 10:25:52;;;;;;;9.35;5.47;;;21.70;84.70;;;;;;6239449;23;20007;-71
2023/06/06 10:28:26;;;;;;;8.23;4.95;;;21.80;84.80;;;;;;6240672;23;20004;-70
2023/06/06 10:31:00;;;;;;;12.88;6.78;;;21.90;84.70;;;;;;6240840;23;20066;-70
2023/06/06 10:33:46;;;;;;;8.55;5.68;;;22.00;84.10;;;;;;6240192;23;20004;-70
2023/06/06 10:36:17;;;;;;;8.25;7.38;;;22.10;84.60;;;;;;6212376;23;20394;-70
2023/06/06 10:39:17;;;;;;;6.35;5.18;;;22.20;83.70;;;;;;6240767;23;20011;-70
2023/06/06 10:41:51;;;;;;;9.15;4.60;;;22.30;83.80;;;;;;6240991;23;20090;-70
2023/06/06 10:44:20;;;;;;;9.40;5.10;;;22.30;83.40;;;;;;6241005;23;20004;-70
2023/06/06 10:46:48;;;;;;;7.70;5.32;;;22.40;82.70;;;;;;6239481;23;19997;-70
2023/06/06 10:49:14;;;;;;;6.20;4.70;;;22.40;82.30;;;;;;6240516;23;20030;-71
2023/06/06 10:51:40;;;;;;;6.40;5.28;;;22.50;82.20;;;;;;6240653;23;20490;-70
2023/06/06 10:54:17;;;;;;;9.02;5.50;;;22.50;81.40;;;;;;6240435;23;20374;-70
2023/06/06 10:57:14;;;;;;;7.53;5.05;;;22.60;81.80;;;;;;6240132;23;20008;-71
2023/06/06 10:59:41;;;;;;;8.25;4.93;;;22.60;81.60;;;;;;6237177;23;20326;-70
2023/06/06 11:02:31;;;;;;;7.50;5.43;;;22.70;81.80;;;;;;6239627;23;20008;-70
2023/06/06 11:04:59;;;;;;;8.45;4.30;;;22.70;80.90;;;;;;6239433;23;20035;-71
2023/06/06 11:07:27;;;;;;;5.90;4.57;;;22.80;81.40;;;;;;6240385;23;19996;-71
2023/06/06 11:09:54;;;;;;;7.40;5.10;;;22.90;81.40;;;;;;6239112;23;20007;-70
2023/06/06 11:12:20;;;;;;;7.35;5.22;;;23.00;81.00;;;;;;6239743;23;20004;-72
2023/06/06 11:15:25;;;;;;;9.43;5.10;;;22.90;80.20;;;;;;6213262;23;20397;-70
2023/06/06 11:18:00;;;;;;;7.57;5.15;;;22.90;79.80;;;;;;6191848;23;20157;-70
2023/06/06 11:20:26;;;;;;;8.25;5.18;;;22.90;80.20;;;;;;6238590;23;20334;-70
2023/06/06 11:23:01;;;;;;;10.45;6.00;;;23.00;80.50;;;;;;6240369;23;20000;-70
2023/06/06 11:25:35;;;;;;;6.97;4.50;;;23.00;80.30;;;;;;6240395;23;20011;-70
2023/06/06 11:28:01;;;;;;;7.05;5.70;;;23.10;80.20;;;;;;6240325;23;20381;-70
2023/06/06 11:30:34;;;;;;;8.18;5.32;;;23.10;79.90;;;;;;6239399;23;20489;-70
2023/06/06 11:33:00;;;;;;;6.75;4.63;;;23.10;79.60;;;;;;6240111;23;20677;-69
2023/06/06 11:35:32;;;;;;;6.22;4.35;;;23.10;79.60;;;;;;6239731;23;20057;-69
2023/06/06 11:37:58;;;;;;;8.98;5.40;;;23.10;78.90;;;;;;6240542;23;20430;-69
2023/06/06 11:40:27;;;;;;;5.90;4.32;;;23.20;79.30;;;;;;6240064;23;20019;-69
2023/06/06 11:42:53;;;;;;;10.27;5.35;;;23.30;78.90;;;;;;6212102;23;20004;-69
2023/06/06 11:45:19;;;;;;;9.05;5.57;;;23.30;77.80;;;;;;6239574;23;20478;-70
2023/06/06 11:47:45;;;;;;;7.20;4.43;;;23.30;77.90;;;;;;6240284;23;20003;-70
2023/06/06 11:50:12;;;;;;;12.95;5.18;;;23.30;78.10;;;;;;6240082;23;20088;-70
2023/06/06 11:52:46;;;;;;;7.13;4.97;;;23.30;78.50;;;;;;6212686;23;20714;-70
2023/06/06 11:55:12;;;;;;;8.88;5.65;;;23.40;78.40;;;;;;6239949;23;20085;-70
2023/06/06 11:57:38;;;;;;;7.38;4.25;;;23.40;78.00;;;;;;6240500;23;20319;-70
2023/06/06 12:00:14;;;;;;;6.68;4.97;;;23.40;77.90;;;;;;6239280;23;20071;-70
2023/06/06 12:02:40;;;;;;;5.60;4.55;;;23.40;77.50;;;;;;6241484;23;20450;-69
2023/06/06 12:05:20;;;;;;;6.32;4.40;;;23.50;76.70;;;;;;6239655;23;20075;-69
2023/06/06 12:07:50;;;;;;;6.22;4.28;;;23.50;76.20;;;;;;6241309;23;20000;-69
2023/06/06 12:10:30;;;;;;;8.02;5.55;;;23.50;76.30;;;;;;6241874;23;19996;-69
2023/06/06 12:12:56;;;;;;;9.35;5.00;;;23.60;76.00;;;;;;6242328;23;20012;-69
2023/06/06 12:15:27;;;;;;;7.85;5.13;;;23.70;76.50;;;;;;6240552;23;20005;-69
2023/06/06 12:18:00;;;;;;;9.07;5.05;;;23.70;76.30;;;;;;6241676;23;20062;-69
2023/06/06 12:20:25;;;;;;;6.50;4.53;;;23.80;76.30;;;;;;6242244;23;20059;-69
2023/06/06 12:22:52;;;;;;;5.88;4.60;;;23.70;75.70;;;;;;6215154;23;20024;-69
2023/06/06 12:25:26;;;;;;;7.95;3.90;;;23.80;74.70;;;;;;6240494;23;20005;-70
2023/06/06 12:27:53;;;;;;;8.85;4.90;;;23.90;75.00;;;;;;6212395;23;20043;-69
2023/06/06 12:30:30;;;;;;;5.85;4.40;;;23.90;74.90;;;;;;6241252;23;20030;-70
2023/06/06 12:32:57;;;;;;;6.80;4.28;;;24.00;75.20;;;;;;6241702;23;20426;-69
2023/06/06 12:35:23;;;;;;;6.68;4.55;;;24.00;74.80;;;;;;6215236;23;20182;-70
2023/06/06 12:37:48;;;;;;;11.52;4.93;;;24.10;74.00;;;;;;6240370;23;20363;-70
2023/06/06 12:40:15;;;;;;;10.30;5.40;;;24.10;73.90;;;;;;6241892;23;20000;-69
2023/06/06 12:42:42;;;;;;;8.65;4.90;;;24.10;73.60;;;;;;6240260;23;20345;-70